N6KR KDAL-KPWK
Flight info
| Callsign | N6KR |
|---|---|
| Flight time | 3h 46m |
| Altitude | 7000 |
| Route | OKM EOS LOTTE MEETS KRENA |
| Aircraft | BE58/L-SDFGRY/C |
Departure
| Time | 2026-04-26 17:12 |
|---|---|
| Airport | Dallas Love Field (KDAL) |
Arrival
| Time | 2026-04-26 20:58 |
|---|---|
| Airport | Chicago Executive Airport (KPWK) |
| Time | Latitude | Longitude | Altitude | Speed | Heading |
|---|---|---|---|---|---|
| 2026-04-26 16:43 | 32.85086 | -96.85752 | 480 ft | 0 kts | 272° |
| 2026-04-26 17:02 | 32.85097 | -96.85753 | 478 ft | 6 kts | 76° |
| 2026-04-26 17:02 | 32.85090 | -96.85740 | 467 ft | 0 kts | 155° |
| 2026-04-26 17:08 | 32.85061 | -96.85793 | 477 ft | 20 kts | 235° |
| 2026-04-26 17:08 | 32.85013 | -96.85936 | 478 ft | 15 kts | 278° |
| 2026-04-26 17:09 | 32.85090 | -96.86042 | 475 ft | 20 kts | 314° |
| 2026-04-26 17:09 | 32.85158 | -96.86121 | 475 ft | 21 kts | 315° |
| 2026-04-26 17:09 | 32.85218 | -96.86223 | 475 ft | 0 kts | 233° |
| 2026-04-26 17:10 | 32.85199 | -96.86248 | 474 ft | 15 kts | 225° |
| 2026-04-26 17:11 | 32.85101 | -96.86303 | 475 ft | 14 kts | 140° |
| 2026-04-26 17:11 | 32.84908 | -96.86079 | 477 ft | 73 kts | 136° |
| 2026-04-26 17:11 | 32.84447 | -96.85518 | 577 ft | 109 kts | 141° |
| 2026-04-26 17:11 | 32.83843 | -96.84796 | 681 ft | 129 kts | 139° |
| 2026-04-26 17:12 | 32.82652 | -96.83295 | 1561 ft | 122 kts | 136° |
| 2026-04-26 17:12 | 32.82115 | -96.82543 | 1975 ft | 117 kts | 135° |
| 2026-04-26 17:13 | 32.81023 | -96.81088 | 2780 ft | 121 kts | 136° |
| 2026-04-26 17:13 | 32.80459 | -96.80284 | 3035 ft | 138 kts | 136° |
| 2026-04-26 17:13 | 32.79101 | -96.78373 | 3469 ft | 156 kts | 136° |
| 2026-04-26 17:14 | 32.78387 | -96.77385 | 3766 ft | 159 kts | 135° |
| 2026-04-26 17:14 | 32.77003 | -96.75327 | 4352 ft | 167 kts | 114° |
| 2026-04-26 17:14 | 32.77107 | -96.73921 | 4652 ft | 182 kts | 66° |
| 2026-04-26 17:15 | 32.78883 | -96.72777 | 5136 ft | 184 kts | 349° |
| 2026-04-26 17:15 | 32.79992 | -96.73380 | 5445 ft | 174 kts | 318° |
| 2026-04-26 17:15 | 32.81408 | -96.74331 | 5858 ft | 179 kts | 337° |
| 2026-04-26 17:16 | 32.82204 | -96.74613 | 6059 ft | 180 kts | 340° |
| 2026-04-26 17:16 | 32.83413 | -96.74999 | 6359 ft | 179 kts | 337° |
| 2026-04-26 17:16 | 32.84602 | -96.75412 | 6634 ft | 178 kts | 338° |
| 2026-04-26 17:16 | 32.85792 | -96.75822 | 6913 ft | 178 kts | 339° |
| 2026-04-26 17:17 | 32.87004 | -96.76236 | 7032 ft | 188 kts | 338° |
| 2026-04-26 17:17 | 32.88299 | -96.76675 | 7042 ft | 197 kts | 338° |
| 2026-04-26 17:17 | 32.89613 | -96.77115 | 7041 ft | 195 kts | 339° |
| 2026-04-26 17:17 | 32.90913 | -96.77558 | 7048 ft | 194 kts | 338° |
| 2026-04-26 17:18 | 32.92205 | -96.77999 | 7048 ft | 193 kts | 338° |
| 2026-04-26 17:18 | 32.93496 | -96.78440 | 7048 ft | 193 kts | 339° |
| 2026-04-26 17:18 | 32.94787 | -96.78880 | 7046 ft | 193 kts | 339° |
| 2026-04-26 17:18 | 32.96071 | -96.79317 | 7047 ft | 192 kts | 338° |
| 2026-04-26 17:19 | 32.98651 | -96.80198 | 7049 ft | 193 kts | 338° |
| 2026-04-26 17:19 | 32.99945 | -96.80639 | 7050 ft | 194 kts | 337° |
| 2026-04-26 17:19 | 33.01240 | -96.81083 | 7051 ft | 194 kts | 338° |
| 2026-04-26 17:20 | 33.02536 | -96.81525 | 7050 ft | 194 kts | 337° |
| 2026-04-26 17:20 | 33.03393 | -96.81816 | 7050 ft | 194 kts | 338° |
| 2026-04-26 17:20 | 33.05134 | -96.82412 | 7009 ft | 195 kts | 338° |
| 2026-04-26 17:20 | 33.06450 | -96.82862 | 7010 ft | 198 kts | 339° |
| 2026-04-26 17:21 | 33.07782 | -96.83319 | 7010 ft | 200 kts | 338° |
| 2026-04-26 17:21 | 33.09129 | -96.83779 | 7008 ft | 201 kts | 339° |
| 2026-04-26 17:21 | 33.10469 | -96.84236 | 7004 ft | 199 kts | 339° |
| 2026-04-26 17:21 | 33.11797 | -96.84688 | 7003 ft | 197 kts | 339° |
| 2026-04-26 17:22 | 33.13112 | -96.85141 | 6998 ft | 197 kts | 337° |
| 2026-04-26 17:22 | 33.14432 | -96.85591 | 6996 ft | 197 kts | 339° |
| 2026-04-26 17:22 | 33.15744 | -96.86042 | 6995 ft | 196 kts | 339° |
| 2026-04-26 17:22 | 33.17052 | -96.86491 | 6995 ft | 196 kts | 338° |
| 2026-04-26 17:23 | 33.18361 | -96.86941 | 6998 ft | 196 kts | 338° |
| 2026-04-26 17:23 | 33.19674 | -96.87392 | 6999 ft | 196 kts | 339° |
| 2026-04-26 17:23 | 33.20986 | -96.87839 | 7000 ft | 197 kts | 339° |
| 2026-04-26 17:23 | 33.22306 | -96.88293 | 7003 ft | 198 kts | 337° |
| 2026-04-26 17:24 | 33.23633 | -96.88755 | 7004 ft | 199 kts | 339° |
| 2026-04-26 17:24 | 33.24971 | -96.89206 | 7003 ft | 199 kts | 339° |
| 2026-04-26 17:24 | 33.26296 | -96.89661 | 7002 ft | 198 kts | 339° |
| 2026-04-26 17:24 | 33.27615 | -96.90119 | 7002 ft | 197 kts | 339° |
| 2026-04-26 17:25 | 33.28932 | -96.90570 | 7002 ft | 197 kts | 338° |
| 2026-04-26 17:25 | 33.30248 | -96.91021 | 7000 ft | 197 kts | 338° |
| 2026-04-26 17:25 | 33.31565 | -96.91477 | 7000 ft | 197 kts | 339° |
| 2026-04-26 17:25 | 33.32880 | -96.91926 | 6999 ft | 197 kts | 338° |
| 2026-04-26 17:26 | 33.34197 | -96.92379 | 6999 ft | 197 kts | 338° |
| 2026-04-26 17:26 | 33.35507 | -96.92830 | 7033 ft | 194 kts | 337° |
| 2026-04-26 17:26 | 33.36801 | -96.93277 | 7032 ft | 195 kts | 338° |
| 2026-04-26 17:26 | 33.38113 | -96.93730 | 7029 ft | 195 kts | 337° |
| 2026-04-26 17:27 | 33.39421 | -96.94181 | 7029 ft | 196 kts | 338° |
| 2026-04-26 17:27 | 33.40733 | -96.94631 | 7030 ft | 197 kts | 339° |
| 2026-04-26 17:27 | 33.42053 | -96.95086 | 7035 ft | 199 kts | 339° |
| 2026-04-26 17:27 | 33.43391 | -96.95550 | 7038 ft | 201 kts | 339° |
| 2026-04-26 17:28 | 33.44737 | -96.95947 | 7038 ft | 205 kts | 349° |
| 2026-04-26 17:28 | 33.46189 | -96.95758 | 7042 ft | 212 kts | 13° |
| 2026-04-26 17:28 | 33.47570 | -96.95205 | 7046 ft | 212 kts | 14° |
| 2026-04-26 17:28 | 33.48985 | -96.94655 | 7055 ft | 211 kts | 14° |
| 2026-04-26 17:29 | 33.50381 | -96.94112 | 7052 ft | 212 kts | 14° |
| 2026-04-26 17:29 | 33.51310 | -96.93748 | 7049 ft | 212 kts | 13° |
| 2026-04-26 17:29 | 33.53185 | -96.93012 | 7053 ft | 212 kts | 14° |
| 2026-04-26 17:29 | 33.54589 | -96.92464 | 7051 ft | 213 kts | 14° |
| 2026-04-26 17:30 | 33.55994 | -96.91914 | 7051 ft | 213 kts | 14° |
| 2026-04-26 17:30 | 33.57383 | -96.91370 | 7048 ft | 212 kts | 14° |
| 2026-04-26 17:30 | 33.58788 | -96.90820 | 7049 ft | 213 kts | 14° |
| 2026-04-26 17:30 | 33.60192 | -96.90269 | 7050 ft | 213 kts | 15° |
| 2026-04-26 17:31 | 33.61604 | -96.89718 | 7051 ft | 213 kts | 14° |
| 2026-04-26 17:31 | 33.63008 | -96.89167 | 7053 ft | 213 kts | 13° |
| 2026-04-26 17:31 | 33.64411 | -96.88617 | 7053 ft | 213 kts | 14° |
| 2026-04-26 17:31 | 33.65820 | -96.88064 | 7053 ft | 212 kts | 14° |
| 2026-04-26 17:32 | 33.67217 | -96.87515 | 7058 ft | 212 kts | 13° |
| 2026-04-26 17:32 | 33.68619 | -96.86965 | 7060 ft | 212 kts | 14° |
| 2026-04-26 17:32 | 33.70029 | -96.86410 | 7060 ft | 215 kts | 14° |
| 2026-04-26 17:32 | 33.71450 | -96.85853 | 7064 ft | 216 kts | 13° |
| 2026-04-26 17:33 | 33.72886 | -96.85290 | 7056 ft | 216 kts | 14° |
| 2026-04-26 17:33 | 33.74311 | -96.84728 | 7057 ft | 215 kts | 14° |
| 2026-04-26 17:33 | 33.75729 | -96.84171 | 7023 ft | 214 kts | 14° |
| 2026-04-26 17:34 | 33.78553 | -96.83059 | 7024 ft | 214 kts | 14° |
| 2026-04-26 17:34 | 33.79968 | -96.82503 | 7024 ft | 213 kts | 15° |
| 2026-04-26 17:34 | 33.81376 | -96.81948 | 7023 ft | 213 kts | 14° |
| 2026-04-26 17:34 | 33.82782 | -96.81396 | 7023 ft | 213 kts | 15° |
| 2026-04-26 17:35 | 33.84192 | -96.80840 | 7020 ft | 213 kts | 14° |
| 2026-04-26 17:35 | 33.85598 | -96.80285 | 7018 ft | 212 kts | 14° |
| 2026-04-26 17:35 | 33.87000 | -96.79731 | 7016 ft | 212 kts | 14° |
| 2026-04-26 17:35 | 33.88401 | -96.79180 | 7018 ft | 212 kts | 14° |
| 2026-04-26 17:36 | 33.89808 | -96.78625 | 7018 ft | 214 kts | 15° |
| 2026-04-26 17:36 | 33.91226 | -96.78066 | 7015 ft | 214 kts | 14° |
| 2026-04-26 17:36 | 33.92637 | -96.77513 | 7013 ft | 214 kts | 15° |
| 2026-04-26 17:36 | 33.94050 | -96.76945 | 7017 ft | 213 kts | 14° |
| 2026-04-26 17:37 | 33.95458 | -96.76389 | 7020 ft | 213 kts | 14° |
| 2026-04-26 17:37 | 33.96859 | -96.75838 | 7021 ft | 213 kts | 14° |
| 2026-04-26 17:37 | 33.98272 | -96.75280 | 7020 ft | 212 kts | 14° |
| 2026-04-26 17:38 | 34.01080 | -96.74169 | 7017 ft | 213 kts | 15° |
| 2026-04-26 17:38 | 34.02487 | -96.73613 | 7019 ft | 213 kts | 14° |
| 2026-04-26 17:38 | 34.03903 | -96.73050 | 7023 ft | 215 kts | 14° |
| 2026-04-26 17:38 | 34.05333 | -96.72476 | 7017 ft | 217 kts | 14° |
| 2026-04-26 17:39 | 34.06762 | -96.71935 | 7015 ft | 216 kts | 14° |
| 2026-04-26 17:39 | 34.08190 | -96.71359 | 7012 ft | 216 kts | 15° |
| 2026-04-26 17:39 | 34.09619 | -96.70785 | 7009 ft | 216 kts | 14° |
| 2026-04-26 17:39 | 34.11044 | -96.70220 | 7013 ft | 216 kts | 14° |
| 2026-04-26 17:40 | 34.12467 | -96.69657 | 7012 ft | 215 kts | 14° |
| 2026-04-26 17:40 | 34.13411 | -96.69282 | 7010 ft | 215 kts | 14° |
| 2026-04-26 17:40 | 34.15304 | -96.68529 | 7020 ft | 215 kts | 14° |
| 2026-04-26 17:40 | 34.16727 | -96.67965 | 7015 ft | 214 kts | 14° |
| 2026-04-26 17:41 | 34.18137 | -96.67404 | 7017 ft | 214 kts | 14° |
| 2026-04-26 17:41 | 34.19554 | -96.66842 | 7017 ft | 214 kts | 14° |
| 2026-04-26 17:41 | 34.20968 | -96.66279 | 7016 ft | 214 kts | 14° |
| 2026-04-26 17:41 | 34.22379 | -96.65718 | 7017 ft | 214 kts | 14° |
| 2026-04-26 17:42 | 34.23791 | -96.65156 | 7014 ft | 214 kts | 13° |
| 2026-04-26 17:42 | 34.25207 | -96.64593 | 7013 ft | 214 kts | 14° |
| 2026-04-26 17:42 | 34.26617 | -96.64031 | 7013 ft | 213 kts | 14° |
| 2026-04-26 17:42 | 34.28028 | -96.63469 | 7012 ft | 214 kts | 14° |
| 2026-04-26 17:43 | 34.29441 | -96.62905 | 7011 ft | 214 kts | 14° |
| 2026-04-26 17:43 | 34.30858 | -96.62341 | 7021 ft | 216 kts | 14° |
| 2026-04-26 17:43 | 34.32273 | -96.61715 | 7020 ft | 218 kts | 21° |
| 2026-04-26 17:43 | 34.33652 | -96.60957 | 7021 ft | 218 kts | 21° |
| 2026-04-26 17:44 | 34.35044 | -96.60207 | 7024 ft | 219 kts | 20° |
| 2026-04-26 17:44 | 34.36439 | -96.59459 | 7027 ft | 219 kts | 21° |
| 2026-04-26 17:44 | 34.37834 | -96.58708 | 7023 ft | 220 kts | 20° |
| 2026-04-26 17:44 | 34.39232 | -96.57945 | 7022 ft | 220 kts | 21° |
| 2026-04-26 17:45 | 34.40627 | -96.57199 | 7022 ft | 219 kts | 20° |
| 2026-04-26 17:45 | 34.42006 | -96.56463 | 7026 ft | 220 kts | 20° |
| 2026-04-26 17:45 | 34.43424 | -96.55696 | 7024 ft | 222 kts | 20° |
| 2026-04-26 17:45 | 34.44819 | -96.54935 | 7023 ft | 223 kts | 20° |
| 2026-04-26 17:46 | 34.46252 | -96.54169 | 7021 ft | 221 kts | 19° |
| 2026-04-26 17:46 | 34.47642 | -96.53440 | 7026 ft | 220 kts | 19° |
| 2026-04-26 17:46 | 34.49028 | -96.52678 | 7023 ft | 219 kts | 21° |
| 2026-04-26 17:46 | 34.50413 | -96.51912 | 7019 ft | 218 kts | 20° |
| 2026-04-26 17:47 | 34.51795 | -96.51168 | 7016 ft | 217 kts | 20° |
| 2026-04-26 17:47 | 34.52259 | -96.50918 | 7018 ft | 217 kts | 20° |
| 2026-04-26 17:47 | 34.54560 | -96.49675 | 7015 ft | 217 kts | 20° |
| 2026-04-26 17:47 | 34.55939 | -96.48928 | 7016 ft | 217 kts | 20° |
| 2026-04-26 17:48 | 34.57329 | -96.48174 | 7026 ft | 220 kts | 21° |
| 2026-04-26 17:48 | 34.58728 | -96.47417 | 7027 ft | 221 kts | 21° |
| 2026-04-26 17:48 | 34.60133 | -96.46656 | 7028 ft | 222 kts | 21° |
| 2026-04-26 17:48 | 34.61533 | -96.45890 | 7018 ft | 221 kts | 22° |
| 2026-04-26 17:49 | 34.62939 | -96.45133 | 7018 ft | 220 kts | 22° |
| 2026-04-26 17:49 | 34.64338 | -96.44377 | 7017 ft | 220 kts | 22° |
| 2026-04-26 17:49 | 34.65739 | -96.43615 | 7018 ft | 220 kts | 23° |
| 2026-04-26 17:49 | 34.67135 | -96.42856 | 7015 ft | 220 kts | 23° |
| 2026-04-26 17:50 | 34.68533 | -96.42097 | 7015 ft | 220 kts | 23° |
| 2026-04-26 17:50 | 34.69930 | -96.41338 | 7016 ft | 220 kts | 22° |
| 2026-04-26 17:50 | 34.71332 | -96.40576 | 7018 ft | 220 kts | 22° |
| 2026-04-26 17:50 | 34.72732 | -96.39815 | 7019 ft | 220 kts | 23° |
| 2026-04-26 17:51 | 34.74130 | -96.39054 | 7017 ft | 221 kts | 23° |
| 2026-04-26 17:51 | 34.75535 | -96.38289 | 7016 ft | 221 kts | 23° |
| 2026-04-26 17:51 | 34.76932 | -96.37529 | 7017 ft | 220 kts | 23° |
| 2026-04-26 17:51 | 34.78331 | -96.36767 | 7015 ft | 220 kts | 22° |
| 2026-04-26 17:52 | 34.79727 | -96.36006 | 7015 ft | 220 kts | 23° |
| 2026-04-26 17:52 | 34.81124 | -96.35245 | 7015 ft | 220 kts | 23° |
| 2026-04-26 17:52 | 34.82518 | -96.34485 | 7016 ft | 220 kts | 22° |
| 2026-04-26 17:52 | 34.83914 | -96.33725 | 7019 ft | 220 kts | 24° |
| 2026-04-26 17:53 | 34.85316 | -96.32959 | 6955 ft | 224 kts | 24° |
| 2026-04-26 17:53 | 34.86713 | -96.32195 | 6972 ft | 222 kts | 24° |
| 2026-04-26 17:53 | 34.88138 | -96.31418 | 6960 ft | 221 kts | 24° |
| 2026-04-26 17:54 | 34.90946 | -96.29884 | 6971 ft | 221 kts | 24° |
| 2026-04-26 17:54 | 34.92325 | -96.29130 | 6974 ft | 221 kts | 24° |
| 2026-04-26 17:54 | 34.93749 | -96.28351 | 6975 ft | 221 kts | 24° |
| 2026-04-26 17:54 | 34.95134 | -96.27593 | 6971 ft | 221 kts | 24° |
| 2026-04-26 17:55 | 34.96534 | -96.26827 | 6976 ft | 221 kts | 24° |
| 2026-04-26 17:55 | 34.97932 | -96.26062 | 6976 ft | 221 kts | 24° |
| 2026-04-26 17:55 | 34.99335 | -96.25294 | 6969 ft | 221 kts | 24° |
| 2026-04-26 17:55 | 35.00744 | -96.24522 | 6970 ft | 221 kts | 24° |
| 2026-04-26 17:56 | 35.02145 | -96.23754 | 6962 ft | 221 kts | 24° |
| 2026-04-26 17:56 | 35.04957 | -96.22212 | 6966 ft | 222 kts | 24° |
| 2026-04-26 17:57 | 35.07783 | -96.20660 | 6958 ft | 221 kts | 24° |
| 2026-04-26 17:57 | 35.09184 | -96.19891 | 6969 ft | 221 kts | 24° |
| 2026-04-26 17:57 | 35.10568 | -96.19131 | 6968 ft | 221 kts | 24° |
| 2026-04-26 17:57 | 35.11973 | -96.18359 | 6969 ft | 221 kts | 24° |
| 2026-04-26 17:58 | 35.16177 | -96.16047 | 6966 ft | 221 kts | 24° |
| 2026-04-26 17:59 | 35.18987 | -96.14499 | 6962 ft | 221 kts | 24° |
| 2026-04-26 17:59 | 35.20384 | -96.13730 | 6964 ft | 221 kts | 23° |
| 2026-04-26 17:59 | 35.21784 | -96.12959 | 6958 ft | 221 kts | 24° |
| 2026-04-26 17:59 | 35.23185 | -96.12187 | 6961 ft | 222 kts | 24° |
| 2026-04-26 18:00 | 35.24139 | -96.11660 | 6971 ft | 222 kts | 22° |
| 2026-04-26 18:00 | 35.26003 | -96.10632 | 6971 ft | 221 kts | 23° |
| 2026-04-26 18:00 | 35.26934 | -96.10119 | 6971 ft | 222 kts | 23° |
| 2026-04-26 18:00 | 35.28338 | -96.09343 | 6968 ft | 222 kts | 24° |
| 2026-04-26 18:01 | 35.29746 | -96.08561 | 6961 ft | 222 kts | 25° |
| 2026-04-26 18:01 | 35.31174 | -96.07766 | 6963 ft | 223 kts | 25° |
| 2026-04-26 18:01 | 35.32570 | -96.07005 | 6962 ft | 223 kts | 25° |
| 2026-04-26 18:01 | 35.33999 | -96.06217 | 6972 ft | 223 kts | 25° |
| 2026-04-26 18:02 | 35.35413 | -96.05433 | 6978 ft | 222 kts | 26° |
| 2026-04-26 18:02 | 35.36343 | -96.04916 | 6976 ft | 221 kts | 26° |
| 2026-04-26 18:02 | 35.38215 | -96.03886 | 6977 ft | 220 kts | 26° |
| 2026-04-26 18:02 | 35.39591 | -96.03123 | 6980 ft | 220 kts | 26° |
| 2026-04-26 18:03 | 35.40982 | -96.02352 | 6986 ft | 220 kts | 26° |
| 2026-04-26 18:03 | 35.42377 | -96.01572 | 6987 ft | 221 kts | 26° |
| 2026-04-26 18:03 | 35.43788 | -96.00795 | 6993 ft | 222 kts | 26° |
| 2026-04-26 18:03 | 35.45195 | -96.00020 | 6993 ft | 222 kts | 25° |
| 2026-04-26 18:04 | 35.46618 | -95.99229 | 7001 ft | 221 kts | 25° |
| 2026-04-26 18:04 | 35.48013 | -95.98451 | 7000 ft | 219 kts | 26° |
| 2026-04-26 18:04 | 35.49403 | -95.97676 | 7005 ft | 220 kts | 26° |
| 2026-04-26 18:05 | 35.52200 | -95.96131 | 7007 ft | 219 kts | 26° |
| 2026-04-26 18:05 | 35.53567 | -95.95354 | 7011 ft | 220 kts | 26° |
| 2026-04-26 18:05 | 35.54961 | -95.94575 | 7012 ft | 221 kts | 26° |
| 2026-04-26 18:05 | 35.56363 | -95.93811 | 7010 ft | 220 kts | 25° |
| 2026-04-26 18:06 | 35.57760 | -95.93048 | 7009 ft | 219 kts | 25° |
| 2026-04-26 18:06 | 35.59141 | -95.92274 | 6995 ft | 219 kts | 26° |
| 2026-04-26 18:06 | 35.60529 | -95.91496 | 6993 ft | 219 kts | 26° |
| 2026-04-26 18:06 | 35.61920 | -95.90729 | 7008 ft | 218 kts | 26° |
| 2026-04-26 18:07 | 35.63298 | -95.89943 | 7010 ft | 218 kts | 27° |
| 2026-04-26 18:07 | 35.64681 | -95.89169 | 7011 ft | 219 kts | 26° |
| 2026-04-26 18:07 | 35.66072 | -95.88401 | 7013 ft | 219 kts | 26° |
| 2026-04-26 18:07 | 35.66983 | -95.87895 | 7012 ft | 219 kts | 26° |
| 2026-04-26 18:08 | 35.68844 | -95.86846 | 7021 ft | 219 kts | 29° |
| 2026-04-26 18:08 | 35.70046 | -95.85716 | 6994 ft | 215 kts | 50° |
| 2026-04-26 18:08 | 35.71092 | -95.84395 | 7000 ft | 217 kts | 49° |
| 2026-04-26 18:08 | 35.72174 | -95.83105 | 7002 ft | 215 kts | 48° |
| 2026-04-26 18:09 | 35.73249 | -95.81797 | 6989 ft | 217 kts | 49° |
| 2026-04-26 18:09 | 35.74316 | -95.80493 | 6995 ft | 215 kts | 49° |
| 2026-04-26 18:09 | 35.75380 | -95.79194 | 6983 ft | 216 kts | 49° |
| 2026-04-26 18:09 | 35.76438 | -95.77888 | 6999 ft | 216 kts | 50° |
| 2026-04-26 18:10 | 35.77510 | -95.76589 | 6993 ft | 216 kts | 48° |
| 2026-04-26 18:10 | 35.78582 | -95.75301 | 6999 ft | 215 kts | 49° |
| 2026-04-26 18:10 | 35.79643 | -95.74000 | 6993 ft | 216 kts | 49° |
| 2026-04-26 18:10 | 35.80704 | -95.72696 | 6994 ft | 215 kts | 49° |
| 2026-04-26 18:11 | 35.81770 | -95.71392 | 6999 ft | 217 kts | 49° |
| 2026-04-26 18:11 | 35.82838 | -95.70085 | 6987 ft | 216 kts | 49° |
| 2026-04-26 18:11 | 35.83905 | -95.68779 | 6988 ft | 215 kts | 49° |
| 2026-04-26 18:11 | 35.84962 | -95.67484 | 6994 ft | 215 kts | 49° |
| 2026-04-26 18:12 | 35.86026 | -95.66182 | 6988 ft | 216 kts | 49° |
| 2026-04-26 18:12 | 35.87090 | -95.64880 | 6985 ft | 215 kts | 49° |
| 2026-04-26 18:12 | 35.88149 | -95.63581 | 6988 ft | 214 kts | 49° |
| 2026-04-26 18:12 | 35.89205 | -95.62286 | 6994 ft | 214 kts | 49° |
| 2026-04-26 18:13 | 35.90256 | -95.60997 | 6993 ft | 213 kts | 49° |
| 2026-04-26 18:13 | 35.91307 | -95.59707 | 7002 ft | 213 kts | 49° |
| 2026-04-26 18:13 | 35.92359 | -95.58415 | 6989 ft | 213 kts | 49° |
| 2026-04-26 18:13 | 35.93058 | -95.57558 | 6993 ft | 213 kts | 49° |
| 2026-04-26 18:14 | 35.94462 | -95.55832 | 6987 ft | 213 kts | 49° |
| 2026-04-26 18:14 | 35.95514 | -95.54539 | 6994 ft | 213 kts | 49° |
| 2026-04-26 18:14 | 35.96565 | -95.53246 | 6998 ft | 213 kts | 49° |
| 2026-04-26 18:14 | 35.97618 | -95.51957 | 7001 ft | 213 kts | 48° |
| 2026-04-26 18:15 | 35.98676 | -95.50664 | 6994 ft | 214 kts | 49° |
| 2026-04-26 18:15 | 35.99723 | -95.49368 | 6996 ft | 213 kts | 49° |
| 2026-04-26 18:15 | 36.00773 | -95.48067 | 7004 ft | 214 kts | 49° |
| 2026-04-26 18:15 | 36.01828 | -95.46766 | 7005 ft | 214 kts | 49° |
| 2026-04-26 18:16 | 36.02883 | -95.45468 | 7008 ft | 214 kts | 48° |
| 2026-04-26 18:16 | 36.04998 | -95.42858 | 7009 ft | 215 kts | 48° |
| 2026-04-26 18:16 | 36.06054 | -95.41555 | 7008 ft | 215 kts | 49° |
| 2026-04-26 18:17 | 36.07111 | -95.40250 | 7010 ft | 215 kts | 49° |
| 2026-04-26 18:17 | 36.08169 | -95.38944 | 7009 ft | 214 kts | 49° |
| 2026-04-26 18:17 | 36.09226 | -95.37639 | 7007 ft | 215 kts | 49° |
| 2026-04-26 18:17 | 36.10280 | -95.36335 | 7009 ft | 215 kts | 49° |
| 2026-04-26 18:18 | 36.11337 | -95.35027 | 7008 ft | 215 kts | 49° |
| 2026-04-26 18:18 | 36.12396 | -95.33717 | 7006 ft | 215 kts | 50° |
| 2026-04-26 18:18 | 36.13460 | -95.32412 | 7015 ft | 216 kts | 48° |
| 2026-04-26 18:18 | 36.14527 | -95.31086 | 7008 ft | 218 kts | 49° |
| 2026-04-26 18:19 | 36.15595 | -95.29751 | 7007 ft | 218 kts | 49° |
| 2026-04-26 18:19 | 36.16666 | -95.28427 | 7011 ft | 218 kts | 49° |
| 2026-04-26 18:19 | 36.17723 | -95.27119 | 7008 ft | 218 kts | 48° |
| 2026-04-26 18:19 | 36.18792 | -95.25794 | 7008 ft | 217 kts | 49° |
| 2026-04-26 18:20 | 36.19859 | -95.24471 | 7007 ft | 217 kts | 49° |
| 2026-04-26 18:20 | 36.20925 | -95.23151 | 7008 ft | 217 kts | 49° |
| 2026-04-26 18:20 | 36.21989 | -95.21826 | 7009 ft | 217 kts | 49° |
| 2026-04-26 18:20 | 36.22707 | -95.20929 | 7010 ft | 217 kts | 49° |
| 2026-04-26 18:21 | 36.24121 | -95.19179 | 7008 ft | 217 kts | 49° |
| 2026-04-26 18:21 | 36.25190 | -95.17849 | 7011 ft | 218 kts | 49° |
| 2026-04-26 18:21 | 36.26258 | -95.16520 | 7010 ft | 217 kts | 50° |
| 2026-04-26 18:21 | 36.27323 | -95.15196 | 7011 ft | 217 kts | 49° |
| 2026-04-26 18:22 | 36.28388 | -95.13870 | 7010 ft | 217 kts | 50° |
| 2026-04-26 18:22 | 36.29450 | -95.12547 | 7009 ft | 216 kts | 49° |
| 2026-04-26 18:22 | 36.30511 | -95.11226 | 7010 ft | 217 kts | 49° |
| 2026-04-26 18:22 | 36.31572 | -95.09904 | 7010 ft | 217 kts | 50° |
| 2026-04-26 18:23 | 36.32636 | -95.08577 | 7010 ft | 216 kts | 49° |
| 2026-04-26 18:23 | 36.33694 | -95.07258 | 7012 ft | 216 kts | 49° |
| 2026-04-26 18:23 | 36.34760 | -95.05928 | 7014 ft | 217 kts | 49° |
| 2026-04-26 18:23 | 36.35824 | -95.04601 | 7012 ft | 216 kts | 49° |
| 2026-04-26 18:24 | 36.36881 | -95.03279 | 7013 ft | 215 kts | 49° |
| 2026-04-26 18:24 | 36.37935 | -95.01963 | 7007 ft | 216 kts | 49° |
| 2026-04-26 18:24 | 36.38989 | -95.00647 | 7007 ft | 216 kts | 49° |
| 2026-04-26 18:24 | 36.40051 | -94.99316 | 7020 ft | 216 kts | 49° |
| 2026-04-26 18:25 | 36.41107 | -94.97995 | 7018 ft | 215 kts | 49° |
| 2026-04-26 18:25 | 36.42166 | -94.96674 | 7022 ft | 216 kts | 49° |
| 2026-04-26 18:25 | 36.43225 | -94.95346 | 7017 ft | 217 kts | 49° |
| 2026-04-26 18:25 | 36.44287 | -94.94020 | 7020 ft | 216 kts | 48° |
| 2026-04-26 18:26 | 36.45342 | -94.92694 | 7016 ft | 216 kts | 49° |
| 2026-04-26 18:26 | 36.46399 | -94.91368 | 7011 ft | 217 kts | 48° |
| 2026-04-26 18:26 | 36.47461 | -94.90037 | 7016 ft | 216 kts | 48° |
| 2026-04-26 18:26 | 36.48516 | -94.88715 | 7015 ft | 216 kts | 48° |
| 2026-04-26 18:27 | 36.49570 | -94.87393 | 7020 ft | 216 kts | 48° |
| 2026-04-26 18:27 | 36.50625 | -94.86068 | 7020 ft | 216 kts | 49° |
| 2026-04-26 18:27 | 36.51677 | -94.84745 | 7013 ft | 215 kts | 48° |
| 2026-04-26 18:27 | 36.52732 | -94.83421 | 7020 ft | 215 kts | 48° |
| 2026-04-26 18:28 | 36.53784 | -94.82099 | 7020 ft | 215 kts | 49° |
| 2026-04-26 18:28 | 36.54838 | -94.80773 | 7019 ft | 216 kts | 49° |
| 2026-04-26 18:28 | 36.55893 | -94.79445 | 7016 ft | 215 kts | 49° |
| 2026-04-26 18:28 | 36.56941 | -94.78127 | 7014 ft | 216 kts | 49° |
| 2026-04-26 18:29 | 36.57999 | -94.76796 | 7018 ft | 215 kts | 49° |
| 2026-04-26 18:29 | 36.59052 | -94.75469 | 7016 ft | 216 kts | 49° |
| 2026-04-26 18:29 | 36.60105 | -94.74143 | 7016 ft | 215 kts | 49° |
| 2026-04-26 18:29 | 36.61156 | -94.72817 | 7017 ft | 215 kts | 49° |
| 2026-04-26 18:30 | 36.62208 | -94.71490 | 7010 ft | 215 kts | 48° |
| 2026-04-26 18:30 | 36.63260 | -94.70163 | 7004 ft | 215 kts | 49° |
| 2026-04-26 18:30 | 36.64307 | -94.68843 | 7007 ft | 214 kts | 49° |
| 2026-04-26 18:30 | 36.65353 | -94.67521 | 7016 ft | 215 kts | 49° |
| 2026-04-26 18:31 | 36.66405 | -94.66192 | 7019 ft | 215 kts | 48° |
| 2026-04-26 18:31 | 36.67451 | -94.64869 | 7025 ft | 215 kts | 49° |
| 2026-04-26 18:31 | 36.68498 | -94.63546 | 7026 ft | 215 kts | 48° |
| 2026-04-26 18:31 | 36.69547 | -94.62220 | 7025 ft | 215 kts | 48° |
| 2026-04-26 18:32 | 36.70597 | -94.60890 | 7024 ft | 215 kts | 48° |
| 2026-04-26 18:32 | 36.71628 | -94.59586 | 7024 ft | 215 kts | 48° |
| 2026-04-26 18:32 | 36.72680 | -94.58253 | 7025 ft | 215 kts | 48° |
| 2026-04-26 18:32 | 36.73726 | -94.56928 | 7023 ft | 214 kts | 47° |
| 2026-04-26 18:33 | 36.74772 | -94.55603 | 7021 ft | 213 kts | 48° |
| 2026-04-26 18:33 | 36.75805 | -94.54295 | 7022 ft | 212 kts | 48° |
| 2026-04-26 18:33 | 36.76844 | -94.52977 | 7011 ft | 212 kts | 48° |
| 2026-04-26 18:33 | 36.77877 | -94.51664 | 7021 ft | 212 kts | 48° |
| 2026-04-26 18:34 | 36.78910 | -94.50353 | 7020 ft | 212 kts | 48° |
| 2026-04-26 18:34 | 36.79944 | -94.49040 | 7021 ft | 212 kts | 48° |
| 2026-04-26 18:34 | 36.80977 | -94.47729 | 7022 ft | 212 kts | 49° |
| 2026-04-26 18:34 | 36.82012 | -94.46411 | 7022 ft | 212 kts | 49° |
| 2026-04-26 18:35 | 36.83043 | -94.45099 | 7027 ft | 213 kts | 48° |
| 2026-04-26 18:35 | 36.84090 | -94.43792 | 7027 ft | 213 kts | 44° |
| 2026-04-26 18:35 | 36.85344 | -94.42798 | 7024 ft | 214 kts | 28° |
| 2026-04-26 18:35 | 36.86648 | -94.41899 | 7027 ft | 215 kts | 31° |
| 2026-04-26 18:36 | 36.87949 | -94.40976 | 7031 ft | 215 kts | 30° |
| 2026-04-26 18:36 | 36.89252 | -94.40060 | 7030 ft | 215 kts | 31° |
| 2026-04-26 18:36 | 36.90549 | -94.39153 | 7027 ft | 214 kts | 31° |
| 2026-04-26 18:36 | 36.91846 | -94.38243 | 7029 ft | 213 kts | 31° |
| 2026-04-26 18:37 | 36.93139 | -94.37336 | 7030 ft | 214 kts | 31° |
| 2026-04-26 18:37 | 36.94435 | -94.36425 | 7028 ft | 213 kts | 31° |
| 2026-04-26 18:37 | 36.95728 | -94.35516 | 7031 ft | 213 kts | 31° |
| 2026-04-26 18:37 | 36.97024 | -94.34607 | 7030 ft | 214 kts | 31° |
| 2026-04-26 18:38 | 36.98318 | -94.33696 | 7032 ft | 213 kts | 31° |
| 2026-04-26 18:38 | 36.99615 | -94.32783 | 7031 ft | 214 kts | 31° |
| 2026-04-26 18:38 | 37.00913 | -94.31870 | 7035 ft | 215 kts | 31° |
| 2026-04-26 18:38 | 37.02216 | -94.30951 | 7036 ft | 216 kts | 31° |
| 2026-04-26 18:39 | 37.03529 | -94.30027 | 7036 ft | 216 kts | 31° |
| 2026-04-26 18:39 | 37.04841 | -94.29105 | 7038 ft | 216 kts | 31° |
| 2026-04-26 18:39 | 37.06147 | -94.28183 | 7035 ft | 216 kts | 31° |
| 2026-04-26 18:39 | 37.07453 | -94.27263 | 7033 ft | 215 kts | 31° |
| 2026-04-26 18:40 | 37.08755 | -94.26344 | 7036 ft | 215 kts | 31° |
| 2026-04-26 18:40 | 37.10059 | -94.25425 | 7037 ft | 215 kts | 31° |
| 2026-04-26 18:40 | 37.11360 | -94.24507 | 7035 ft | 214 kts | 31° |
| 2026-04-26 18:40 | 37.12661 | -94.23587 | 7034 ft | 214 kts | 31° |
| 2026-04-26 18:41 | 37.13958 | -94.22670 | 7034 ft | 214 kts | 32° |
| 2026-04-26 18:41 | 37.15257 | -94.21752 | 7036 ft | 215 kts | 31° |
| 2026-04-26 18:41 | 37.16560 | -94.20831 | 7038 ft | 214 kts | 31° |
| 2026-04-26 18:41 | 37.17863 | -94.19910 | 7031 ft | 215 kts | 32° |
| 2026-04-26 18:42 | 37.19163 | -94.18992 | 7028 ft | 214 kts | 30° |
| 2026-04-26 18:42 | 37.20459 | -94.18074 | 7029 ft | 214 kts | 30° |
| 2026-04-26 18:42 | 37.21754 | -94.17156 | 7030 ft | 214 kts | 31° |
| 2026-04-26 18:42 | 37.23050 | -94.16235 | 7029 ft | 215 kts | 30° |
| 2026-04-26 18:43 | 37.23914 | -94.15624 | 7032 ft | 216 kts | 30° |
| 2026-04-26 18:43 | 37.25213 | -94.14704 | 7033 ft | 215 kts | 30° |
| 2026-04-26 18:43 | 37.26515 | -94.13776 | 7030 ft | 215 kts | 30° |
| 2026-04-26 18:43 | 37.27821 | -94.12855 | 7025 ft | 215 kts | 30° |
| 2026-04-26 18:44 | 37.29119 | -94.11935 | 7021 ft | 214 kts | 30° |
| 2026-04-26 18:44 | 37.30414 | -94.11014 | 7028 ft | 214 kts | 30° |
| 2026-04-26 18:44 | 37.31714 | -94.10089 | 7028 ft | 214 kts | 30° |
| 2026-04-26 18:44 | 37.33005 | -94.09172 | 7026 ft | 214 kts | 30° |
| 2026-04-26 18:45 | 37.34301 | -94.08251 | 7024 ft | 214 kts | 30° |
| 2026-04-26 18:45 | 37.35593 | -94.07335 | 7019 ft | 213 kts | 30° |
| 2026-04-26 18:45 | 37.36886 | -94.06414 | 7029 ft | 214 kts | 30° |
| 2026-04-26 18:45 | 37.38176 | -94.05492 | 7029 ft | 214 kts | 31° |
| 2026-04-26 18:46 | 37.39474 | -94.04566 | 7032 ft | 215 kts | 30° |
| 2026-04-26 18:46 | 37.40774 | -94.03644 | 7037 ft | 214 kts | 30° |
| 2026-04-26 18:46 | 37.42077 | -94.02717 | 7034 ft | 216 kts | 31° |
| 2026-04-26 18:46 | 37.43381 | -94.01784 | 7027 ft | 215 kts | 31° |
| 2026-04-26 18:47 | 37.44680 | -94.00858 | 7023 ft | 214 kts | 31° |
| 2026-04-26 18:47 | 37.45978 | -93.99934 | 7019 ft | 214 kts | 31° |
| 2026-04-26 18:47 | 37.47270 | -93.99010 | 7031 ft | 216 kts | 30° |
| 2026-04-26 18:47 | 37.48578 | -93.98073 | 7020 ft | 215 kts | 31° |
| 2026-04-26 18:48 | 37.49881 | -93.97145 | 7020 ft | 215 kts | 30° |
| 2026-04-26 18:48 | 37.51181 | -93.96211 | 7030 ft | 215 kts | 31° |
| 2026-04-26 18:48 | 37.52483 | -93.95286 | 7029 ft | 217 kts | 30° |
| 2026-04-26 18:48 | 37.53803 | -93.94342 | 7022 ft | 218 kts | 31° |
| 2026-04-26 18:49 | 37.55111 | -93.93412 | 7025 ft | 215 kts | 30° |
| 2026-04-26 18:49 | 37.56401 | -93.92483 | 7023 ft | 213 kts | 31° |
| 2026-04-26 18:49 | 37.57692 | -93.91556 | 7022 ft | 213 kts | 31° |
| 2026-04-26 18:49 | 37.58973 | -93.90638 | 7024 ft | 212 kts | 31° |
| 2026-04-26 18:50 | 37.60261 | -93.89720 | 7025 ft | 213 kts | 31° |
| 2026-04-26 18:50 | 37.61551 | -93.88793 | 7028 ft | 214 kts | 31° |
| 2026-04-26 18:50 | 37.62849 | -93.87855 | 7023 ft | 216 kts | 31° |
| 2026-04-26 18:50 | 37.64150 | -93.86931 | 7025 ft | 215 kts | 30° |
| 2026-04-26 18:51 | 37.65458 | -93.85996 | 7026 ft | 216 kts | 31° |
| 2026-04-26 18:51 | 37.66754 | -93.85061 | 7024 ft | 214 kts | 31° |
| 2026-04-26 18:51 | 37.68044 | -93.84126 | 7025 ft | 214 kts | 31° |
| 2026-04-26 18:51 | 37.69341 | -93.83201 | 7030 ft | 215 kts | 31° |
| 2026-04-26 18:52 | 37.70639 | -93.82265 | 7020 ft | 215 kts | 31° |
| 2026-04-26 18:52 | 37.71932 | -93.81334 | 7019 ft | 213 kts | 31° |
| 2026-04-26 18:52 | 37.73217 | -93.80404 | 7029 ft | 212 kts | 31° |
| 2026-04-26 18:52 | 37.74496 | -93.79489 | 7026 ft | 210 kts | 30° |
| 2026-04-26 18:53 | 37.75769 | -93.78576 | 7019 ft | 211 kts | 31° |
| 2026-04-26 18:53 | 37.77019 | -93.77675 | 7025 ft | 211 kts | 30° |
| 2026-04-26 18:53 | 37.78310 | -93.76745 | 7028 ft | 210 kts | 31° |
| 2026-04-26 18:53 | 37.79577 | -93.75829 | 7027 ft | 209 kts | 31° |
| 2026-04-26 18:54 | 37.80821 | -93.74933 | 7016 ft | 209 kts | 31° |
| 2026-04-26 18:54 | 37.82103 | -93.74007 | 7024 ft | 209 kts | 31° |
| 2026-04-26 18:54 | 37.83352 | -93.73106 | 7022 ft | 210 kts | 31° |
| 2026-04-26 18:54 | 37.84620 | -93.72189 | 7021 ft | 210 kts | 31° |
| 2026-04-26 18:55 | 37.85885 | -93.71276 | 7027 ft | 210 kts | 30° |
| 2026-04-26 18:55 | 37.87154 | -93.70359 | 7027 ft | 209 kts | 30° |
| 2026-04-26 18:55 | 37.88414 | -93.69448 | 7023 ft | 209 kts | 30° |
| 2026-04-26 18:55 | 37.89696 | -93.68521 | 7030 ft | 209 kts | 30° |
| 2026-04-26 18:56 | 37.90943 | -93.67619 | 7032 ft | 209 kts | 31° |
| 2026-04-26 18:56 | 37.92225 | -93.66689 | 7025 ft | 209 kts | 31° |
| 2026-04-26 18:56 | 37.93487 | -93.65776 | 7030 ft | 209 kts | 31° |
| 2026-04-26 18:56 | 37.94731 | -93.64874 | 7023 ft | 209 kts | 31° |
| 2026-04-26 18:57 | 37.96009 | -93.63950 | 7027 ft | 208 kts | 31° |
| 2026-04-26 18:57 | 37.96841 | -93.63350 | 7031 ft | 208 kts | 31° |
| 2026-04-26 18:57 | 37.98502 | -93.62140 | 7030 ft | 208 kts | 31° |
| 2026-04-26 18:57 | 37.99758 | -93.61228 | 7029 ft | 208 kts | 31° |
| 2026-04-26 18:58 | 38.01016 | -93.60316 | 7028 ft | 208 kts | 31° |
| 2026-04-26 18:58 | 38.02271 | -93.59406 | 7030 ft | 208 kts | 31° |
| 2026-04-26 18:58 | 38.03526 | -93.58493 | 7026 ft | 208 kts | 31° |
| 2026-04-26 18:58 | 38.04778 | -93.57583 | 7027 ft | 208 kts | 31° |
| 2026-04-26 18:59 | 38.06036 | -93.56669 | 7022 ft | 208 kts | 31° |
| 2026-04-26 18:59 | 38.07292 | -93.55756 | 7032 ft | 208 kts | 31° |
| 2026-04-26 18:59 | 38.08550 | -93.54840 | 7032 ft | 208 kts | 31° |
| 2026-04-26 18:59 | 38.09805 | -93.53926 | 7027 ft | 208 kts | 31° |
| 2026-04-26 19:00 | 38.11059 | -93.53013 | 7024 ft | 208 kts | 31° |
| 2026-04-26 19:00 | 38.12311 | -93.52101 | 7028 ft | 208 kts | 31° |
| 2026-04-26 19:00 | 38.13571 | -93.51183 | 7041 ft | 208 kts | 31° |
| 2026-04-26 19:00 | 38.14821 | -93.50271 | 7055 ft | 207 kts | 31° |
| 2026-04-26 19:01 | 38.16068 | -93.49360 | 7054 ft | 207 kts | 31° |
| 2026-04-26 19:01 | 38.17326 | -93.48444 | 7057 ft | 208 kts | 31° |
| 2026-04-26 19:01 | 38.18574 | -93.47532 | 7058 ft | 208 kts | 31° |
| 2026-04-26 19:01 | 38.19831 | -93.46616 | 7059 ft | 208 kts | 32° |
| 2026-04-26 19:02 | 38.21078 | -93.45704 | 7039 ft | 207 kts | 31° |
| 2026-04-26 19:02 | 38.22330 | -93.44789 | 7042 ft | 208 kts | 32° |
| 2026-04-26 19:02 | 38.23581 | -93.43873 | 7040 ft | 208 kts | 31° |
| 2026-04-26 19:02 | 38.24415 | -93.43264 | 7043 ft | 208 kts | 31° |
| 2026-04-26 19:03 | 38.26096 | -93.42034 | 7032 ft | 208 kts | 32° |
| 2026-04-26 19:03 | 38.27353 | -93.41112 | 6986 ft | 210 kts | 32° |
| 2026-04-26 19:03 | 38.28618 | -93.40184 | 6985 ft | 208 kts | 31° |
| 2026-04-26 19:03 | 38.29878 | -93.39269 | 6987 ft | 208 kts | 31° |
| 2026-04-26 19:04 | 38.31127 | -93.38350 | 6985 ft | 208 kts | 32° |
| 2026-04-26 19:04 | 38.32354 | -93.37447 | 6991 ft | 207 kts | 31° |
| 2026-04-26 19:04 | 38.33623 | -93.36517 | 6985 ft | 207 kts | 32° |
| 2026-04-26 19:04 | 38.34859 | -93.35609 | 7015 ft | 206 kts | 31° |
| 2026-04-26 19:05 | 38.37360 | -93.33779 | 7020 ft | 208 kts | 32° |
| 2026-04-26 19:05 | 38.38611 | -93.32858 | 7017 ft | 208 kts | 31° |
| 2026-04-26 19:05 | 38.39862 | -93.31933 | 7020 ft | 209 kts | 32° |
| 2026-04-26 19:06 | 38.41125 | -93.31003 | 7022 ft | 209 kts | 32° |
| 2026-04-26 19:06 | 38.42381 | -93.30081 | 7022 ft | 208 kts | 31° |
| 2026-04-26 19:06 | 38.43635 | -93.29161 | 7021 ft | 208 kts | 31° |
| 2026-04-26 19:06 | 38.44890 | -93.28238 | 7023 ft | 207 kts | 31° |
| 2026-04-26 19:07 | 38.46134 | -93.27321 | 7021 ft | 208 kts | 32° |
| 2026-04-26 19:07 | 38.47389 | -93.26396 | 7023 ft | 208 kts | 31° |
| 2026-04-26 19:07 | 38.48642 | -93.25473 | 7024 ft | 208 kts | 31° |
| 2026-04-26 19:07 | 38.49894 | -93.24549 | 7023 ft | 208 kts | 32° |
| 2026-04-26 19:08 | 38.51148 | -93.23625 | 7028 ft | 208 kts | 31° |
| 2026-04-26 19:08 | 38.52398 | -93.22701 | 7026 ft | 208 kts | 32° |
| 2026-04-26 19:08 | 38.53657 | -93.21771 | 7029 ft | 208 kts | 31° |
| 2026-04-26 19:08 | 38.54908 | -93.20848 | 7024 ft | 208 kts | 32° |
| 2026-04-26 19:09 | 38.56162 | -93.19920 | 7029 ft | 209 kts | 32° |
| 2026-04-26 19:09 | 38.57421 | -93.18988 | 7031 ft | 209 kts | 32° |
| 2026-04-26 19:09 | 38.58682 | -93.18060 | 7034 ft | 209 kts | 32° |
| 2026-04-26 19:09 | 38.59938 | -93.17131 | 7033 ft | 208 kts | 31° |
| 2026-04-26 19:10 | 38.61191 | -93.16200 | 7040 ft | 208 kts | 31° |
| 2026-04-26 19:10 | 38.62442 | -93.15276 | 7048 ft | 208 kts | 31° |
| 2026-04-26 19:10 | 38.63681 | -93.14361 | 7051 ft | 208 kts | 31° |
| 2026-04-26 19:10 | 38.64948 | -93.13420 | 7050 ft | 208 kts | 31° |
| 2026-04-26 19:11 | 38.66188 | -93.12495 | 7049 ft | 209 kts | 31° |
| 2026-04-26 19:11 | 38.67446 | -93.11564 | 7046 ft | 209 kts | 32° |
| 2026-04-26 19:11 | 38.68701 | -93.10635 | 7052 ft | 209 kts | 31° |
| 2026-04-26 19:11 | 38.69970 | -93.09694 | 7050 ft | 208 kts | 32° |
| 2026-04-26 19:12 | 38.71210 | -93.08770 | 7045 ft | 210 kts | 32° |
| 2026-04-26 19:12 | 38.72475 | -93.07838 | 7050 ft | 209 kts | 32° |
| 2026-04-26 19:12 | 38.73734 | -93.06898 | 7043 ft | 209 kts | 31° |
| 2026-04-26 19:12 | 38.74989 | -93.05961 | 7045 ft | 208 kts | 32° |
| 2026-04-26 19:13 | 38.76244 | -93.05034 | 7029 ft | 208 kts | 32° |
| 2026-04-26 19:13 | 38.77498 | -93.04106 | 7042 ft | 209 kts | 32° |
| 2026-04-26 19:13 | 38.78757 | -93.03162 | 7041 ft | 210 kts | 32° |
| 2026-04-26 19:13 | 38.80020 | -93.02223 | 7041 ft | 210 kts | 32° |
| 2026-04-26 19:14 | 38.81283 | -93.01282 | 7047 ft | 210 kts | 32° |
| 2026-04-26 19:14 | 38.82552 | -93.00338 | 7043 ft | 211 kts | 33° |
| 2026-04-26 19:14 | 38.83818 | -92.99397 | 7044 ft | 210 kts | 32° |
| 2026-04-26 19:14 | 38.84250 | -92.99072 | 7043 ft | 210 kts | 32° |
| 2026-04-26 19:15 | 38.86348 | -92.97500 | 7050 ft | 210 kts | 32° |
| 2026-04-26 19:15 | 38.87619 | -92.96554 | 7046 ft | 211 kts | 33° |
| 2026-04-26 19:15 | 38.88887 | -92.95610 | 7044 ft | 211 kts | 33° |
| 2026-04-26 19:15 | 38.90149 | -92.94664 | 7050 ft | 210 kts | 32° |
| 2026-04-26 19:16 | 38.91411 | -92.93717 | 7047 ft | 210 kts | 33° |
| 2026-04-26 19:16 | 38.92674 | -92.92774 | 7040 ft | 209 kts | 33° |
| 2026-04-26 19:16 | 38.93934 | -92.91838 | 7043 ft | 209 kts | 32° |
| 2026-04-26 19:16 | 38.95194 | -92.90897 | 7047 ft | 210 kts | 34° |
| 2026-04-26 19:17 | 38.96454 | -92.89946 | 7050 ft | 210 kts | 33° |
| 2026-04-26 19:17 | 38.97717 | -92.88999 | 7052 ft | 210 kts | 33° |
| 2026-04-26 19:17 | 38.98977 | -92.88055 | 7051 ft | 210 kts | 33° |
| 2026-04-26 19:17 | 39.00239 | -92.87111 | 7053 ft | 209 kts | 33° |
| 2026-04-26 19:18 | 39.01499 | -92.86164 | 7059 ft | 211 kts | 33° |
| 2026-04-26 19:18 | 39.02767 | -92.85216 | 7059 ft | 210 kts | 33° |
| 2026-04-26 19:18 | 39.04030 | -92.84266 | 7061 ft | 211 kts | 33° |
| 2026-04-26 19:18 | 39.05294 | -92.83318 | 7057 ft | 210 kts | 32° |
| 2026-04-26 19:19 | 39.06552 | -92.82374 | 7064 ft | 210 kts | 33° |
| 2026-04-26 19:19 | 39.07811 | -92.81425 | 7055 ft | 209 kts | 33° |
| 2026-04-26 19:19 | 39.09068 | -92.80481 | 7061 ft | 209 kts | 34° |
| 2026-04-26 19:19 | 39.10330 | -92.79536 | 7055 ft | 210 kts | 33° |
| 2026-04-26 19:20 | 39.11572 | -92.78598 | 7064 ft | 210 kts | 33° |
| 2026-04-26 19:20 | 39.11997 | -92.78278 | 7064 ft | 210 kts | 34° |
| 2026-04-26 19:20 | 39.14114 | -92.76688 | 7060 ft | 210 kts | 34° |
| 2026-04-26 19:20 | 39.15356 | -92.75748 | 7062 ft | 210 kts | 34° |
| 2026-04-26 19:21 | 39.16619 | -92.74793 | 7064 ft | 211 kts | 34° |
| 2026-04-26 19:21 | 39.17899 | -92.73830 | 7069 ft | 210 kts | 34° |
| 2026-04-26 19:21 | 39.19166 | -92.72876 | 7064 ft | 211 kts | 35° |
| 2026-04-26 19:21 | 39.20434 | -92.71917 | 7069 ft | 212 kts | 34° |
| 2026-04-26 19:22 | 39.21705 | -92.70956 | 7064 ft | 211 kts | 34° |
| 2026-04-26 19:22 | 39.22971 | -92.70006 | 7069 ft | 211 kts | 35° |
| 2026-04-26 19:22 | 39.24235 | -92.69050 | 7066 ft | 210 kts | 33° |
| 2026-04-26 19:22 | 39.25499 | -92.68093 | 7075 ft | 211 kts | 34° |
| 2026-04-26 19:23 | 39.26768 | -92.67136 | 7059 ft | 210 kts | 35° |
| 2026-04-26 19:23 | 39.28002 | -92.66190 | 7059 ft | 209 kts | 34° |
| 2026-04-26 19:23 | 39.29244 | -92.65254 | 7065 ft | 209 kts | 34° |
| 2026-04-26 19:23 | 39.30507 | -92.64305 | 7065 ft | 208 kts | 34° |
| 2026-04-26 19:24 | 39.31755 | -92.63360 | 7065 ft | 208 kts | 34° |
| 2026-04-26 19:24 | 39.33001 | -92.62411 | 7062 ft | 208 kts | 35° |
| 2026-04-26 19:24 | 39.35492 | -92.60527 | 7062 ft | 207 kts | 34° |
| 2026-04-26 19:25 | 39.36730 | -92.59584 | 7062 ft | 207 kts | 35° |
| 2026-04-26 19:25 | 39.37150 | -92.59265 | 7066 ft | 208 kts | 35° |
| 2026-04-26 19:25 | 39.39224 | -92.57690 | 7079 ft | 209 kts | 34° |
| 2026-04-26 19:25 | 39.40479 | -92.56738 | 7078 ft | 209 kts | 35° |
| 2026-04-26 19:26 | 39.41730 | -92.55787 | 7082 ft | 208 kts | 35° |
| 2026-04-26 19:26 | 39.42980 | -92.54837 | 7076 ft | 208 kts | 34° |
| 2026-04-26 19:26 | 39.44228 | -92.53886 | 7081 ft | 209 kts | 35° |
| 2026-04-26 19:26 | 39.45477 | -92.52934 | 7077 ft | 208 kts | 34° |
| 2026-04-26 19:27 | 39.46318 | -92.52295 | 7077 ft | 208 kts | 35° |
| 2026-04-26 19:27 | 39.47544 | -92.51362 | 7083 ft | 208 kts | 34° |
| 2026-04-26 19:27 | 39.48792 | -92.50411 | 7076 ft | 207 kts | 34° |
| 2026-04-26 19:27 | 39.50036 | -92.49463 | 7081 ft | 207 kts | 35° |
| 2026-04-26 19:28 | 39.51278 | -92.48516 | 7075 ft | 207 kts | 34° |
| 2026-04-26 19:28 | 39.52540 | -92.47554 | 7071 ft | 207 kts | 35° |
| 2026-04-26 19:28 | 39.53777 | -92.46609 | 7077 ft | 207 kts | 34° |
| 2026-04-26 19:28 | 39.55019 | -92.45661 | 7076 ft | 207 kts | 35° |
| 2026-04-26 19:29 | 39.56259 | -92.44714 | 7069 ft | 207 kts | 35° |
| 2026-04-26 19:29 | 39.57503 | -92.43762 | 7076 ft | 207 kts | 34° |
| 2026-04-26 19:29 | 39.58727 | -92.42828 | 7077 ft | 207 kts | 35° |
| 2026-04-26 19:29 | 39.59984 | -92.41866 | 7078 ft | 207 kts | 35° |
| 2026-04-26 19:30 | 39.61223 | -92.40918 | 7075 ft | 207 kts | 35° |
| 2026-04-26 19:30 | 39.62448 | -92.39981 | 7079 ft | 207 kts | 35° |
| 2026-04-26 19:30 | 39.63687 | -92.39032 | 7075 ft | 207 kts | 35° |
| 2026-04-26 19:30 | 39.64524 | -92.38391 | 7079 ft | 207 kts | 35° |
| 2026-04-26 19:31 | 39.66182 | -92.37121 | 7077 ft | 206 kts | 35° |
| 2026-04-26 19:31 | 39.67403 | -92.36183 | 7083 ft | 207 kts | 35° |
| 2026-04-26 19:31 | 39.68638 | -92.35236 | 7078 ft | 206 kts | 35° |
| 2026-04-26 19:31 | 39.69873 | -92.34289 | 7078 ft | 206 kts | 35° |
| 2026-04-26 19:32 | 39.71111 | -92.33340 | 7084 ft | 207 kts | 35° |
| 2026-04-26 19:32 | 39.72348 | -92.32389 | 7083 ft | 207 kts | 35° |
| 2026-04-26 19:32 | 39.73589 | -92.31435 | 7082 ft | 207 kts | 35° |
| 2026-04-26 19:32 | 39.74826 | -92.30483 | 7082 ft | 207 kts | 35° |
| 2026-04-26 19:33 | 39.76072 | -92.29527 | 7081 ft | 208 kts | 35° |
| 2026-04-26 19:33 | 39.77312 | -92.28575 | 7083 ft | 207 kts | 34° |
| 2026-04-26 19:33 | 39.78552 | -92.27621 | 7083 ft | 207 kts | 35° |
| 2026-04-26 19:33 | 39.79789 | -92.26665 | 7083 ft | 207 kts | 35° |
| 2026-04-26 19:34 | 39.81030 | -92.25709 | 7093 ft | 207 kts | 34° |
| 2026-04-26 19:34 | 39.82274 | -92.24751 | 7089 ft | 208 kts | 34° |
| 2026-04-26 19:34 | 39.83518 | -92.23793 | 7089 ft | 208 kts | 34° |
| 2026-04-26 19:34 | 39.84758 | -92.22835 | 7094 ft | 208 kts | 34° |
| 2026-04-26 19:35 | 39.86001 | -92.21875 | 7088 ft | 207 kts | 35° |
| 2026-04-26 19:35 | 39.87243 | -92.20920 | 7091 ft | 207 kts | 35° |
| 2026-04-26 19:35 | 39.88478 | -92.19965 | 7082 ft | 207 kts | 35° |
| 2026-04-26 19:35 | 39.89716 | -92.19007 | 7087 ft | 206 kts | 35° |
| 2026-04-26 19:36 | 39.90949 | -92.18053 | 7091 ft | 206 kts | 34° |
| 2026-04-26 19:36 | 39.91769 | -92.17421 | 7097 ft | 208 kts | 34° |
| 2026-04-26 19:36 | 39.93435 | -92.16132 | 7090 ft | 208 kts | 34° |
| 2026-04-26 19:36 | 39.94679 | -92.15170 | 7094 ft | 207 kts | 35° |
| 2026-04-26 19:37 | 39.95915 | -92.14207 | 7094 ft | 207 kts | 35° |
| 2026-04-26 19:37 | 39.97151 | -92.13254 | 7095 ft | 206 kts | 34° |
| 2026-04-26 19:37 | 39.98386 | -92.12300 | 7093 ft | 206 kts | 35° |
| 2026-04-26 19:37 | 39.99619 | -92.11344 | 7094 ft | 206 kts | 35° |
| 2026-04-26 19:38 | 40.00852 | -92.10385 | 7095 ft | 206 kts | 35° |
| 2026-04-26 19:38 | 40.02086 | -92.09425 | 7088 ft | 206 kts | 35° |
| 2026-04-26 19:38 | 40.03314 | -92.08476 | 7101 ft | 205 kts | 35° |
| 2026-04-26 19:38 | 40.04541 | -92.07525 | 7104 ft | 205 kts | 35° |
| 2026-04-26 19:39 | 40.05766 | -92.06572 | 7102 ft | 205 kts | 36° |
| 2026-04-26 19:39 | 40.06989 | -92.05619 | 7101 ft | 205 kts | 35° |
| 2026-04-26 19:39 | 40.08218 | -92.04663 | 7102 ft | 206 kts | 36° |
| 2026-04-26 19:39 | 40.09447 | -92.03707 | 7102 ft | 206 kts | 35° |
| 2026-04-26 19:40 | 40.10678 | -92.02752 | 7101 ft | 205 kts | 35° |
| 2026-04-26 19:40 | 40.11903 | -92.01799 | 7103 ft | 205 kts | 35° |
| 2026-04-26 19:40 | 40.13128 | -92.00837 | 7096 ft | 205 kts | 36° |
| 2026-04-26 19:40 | 40.14359 | -91.99883 | 7105 ft | 206 kts | 35° |
| 2026-04-26 19:41 | 40.15583 | -91.98933 | 7107 ft | 205 kts | 35° |
| 2026-04-26 19:41 | 40.16816 | -91.97967 | 7105 ft | 206 kts | 35° |
| 2026-04-26 19:41 | 40.18031 | -91.97022 | 7099 ft | 205 kts | 35° |
| 2026-04-26 19:41 | 40.18859 | -91.96375 | 7101 ft | 205 kts | 36° |
| 2026-04-26 19:42 | 40.20486 | -91.95104 | 7102 ft | 206 kts | 35° |
| 2026-04-26 19:42 | 40.21715 | -91.94143 | 7105 ft | 206 kts | 35° |
| 2026-04-26 19:42 | 40.22942 | -91.93186 | 7103 ft | 206 kts | 36° |
| 2026-04-26 19:42 | 40.24167 | -91.92227 | 7102 ft | 205 kts | 35° |
| 2026-04-26 19:43 | 40.25392 | -91.91270 | 7105 ft | 205 kts | 36° |
| 2026-04-26 19:43 | 40.26609 | -91.90317 | 7090 ft | 205 kts | 35° |
| 2026-04-26 19:43 | 40.27843 | -91.89355 | 7093 ft | 205 kts | 35° |
| 2026-04-26 19:43 | 40.29070 | -91.88392 | 7096 ft | 206 kts | 35° |
| 2026-04-26 19:44 | 40.30296 | -91.87428 | 7098 ft | 205 kts | 35° |
| 2026-04-26 19:44 | 40.31521 | -91.86467 | 7099 ft | 206 kts | 36° |
| 2026-04-26 19:44 | 40.32754 | -91.85502 | 7095 ft | 207 kts | 35° |
| 2026-04-26 19:44 | 40.33992 | -91.84533 | 7103 ft | 207 kts | 35° |
| 2026-04-26 19:45 | 40.35225 | -91.83563 | 7105 ft | 207 kts | 35° |
| 2026-04-26 19:45 | 40.36458 | -91.82593 | 7108 ft | 207 kts | 34° |
| 2026-04-26 19:45 | 40.37698 | -91.81622 | 7109 ft | 207 kts | 35° |
| 2026-04-26 19:45 | 40.38929 | -91.80655 | 7106 ft | 206 kts | 35° |
| 2026-04-26 19:46 | 40.40158 | -91.79688 | 7107 ft | 206 kts | 35° |
| 2026-04-26 19:46 | 40.41382 | -91.78724 | 7096 ft | 205 kts | 35° |
| 2026-04-26 19:46 | 40.42606 | -91.77764 | 7103 ft | 205 kts | 35° |
| 2026-04-26 19:46 | 40.43829 | -91.76801 | 7109 ft | 206 kts | 35° |
| 2026-04-26 19:47 | 40.45056 | -91.75833 | 7110 ft | 206 kts | 34° |
| 2026-04-26 19:47 | 40.45870 | -91.75189 | 7097 ft | 206 kts | 35° |
| 2026-04-26 19:47 | 40.47518 | -91.73892 | 7105 ft | 206 kts | 35° |
| 2026-04-26 19:47 | 40.48745 | -91.72926 | 7106 ft | 206 kts | 35° |
| 2026-04-26 19:48 | 40.49976 | -91.71954 | 7101 ft | 207 kts | 35° |
| 2026-04-26 19:48 | 40.51212 | -91.70979 | 7098 ft | 206 kts | 35° |
| 2026-04-26 19:48 | 40.52444 | -91.70005 | 7102 ft | 207 kts | 35° |
| 2026-04-26 19:48 | 40.53678 | -91.69032 | 7103 ft | 207 kts | 35° |
| 2026-04-26 19:49 | 40.54900 | -91.68065 | 7105 ft | 208 kts | 35° |
| 2026-04-26 19:49 | 40.56154 | -91.67074 | 7110 ft | 207 kts | 35° |
| 2026-04-26 19:49 | 40.57388 | -91.66098 | 7106 ft | 207 kts | 35° |
| 2026-04-26 19:49 | 40.58606 | -91.65132 | 7108 ft | 207 kts | 36° |
| 2026-04-26 19:50 | 40.59837 | -91.64160 | 7106 ft | 206 kts | 35° |
| 2026-04-26 19:50 | 40.61067 | -91.63183 | 7102 ft | 206 kts | 35° |
| 2026-04-26 19:50 | 40.62301 | -91.62207 | 7113 ft | 207 kts | 35° |
| 2026-04-26 19:50 | 40.63534 | -91.61223 | 7115 ft | 207 kts | 35° |
| 2026-04-26 19:51 | 40.64767 | -91.60246 | 7111 ft | 207 kts | 34° |
| 2026-04-26 19:51 | 40.66003 | -91.59276 | 7108 ft | 206 kts | 35° |
| 2026-04-26 19:51 | 40.67234 | -91.58298 | 7103 ft | 206 kts | 35° |
| 2026-04-26 19:51 | 40.68458 | -91.57323 | 7111 ft | 206 kts | 36° |
| 2026-04-26 19:52 | 40.69685 | -91.56345 | 7112 ft | 207 kts | 35° |
| 2026-04-26 19:52 | 40.70916 | -91.55366 | 7103 ft | 207 kts | 35° |
| 2026-04-26 19:52 | 40.72147 | -91.54391 | 7106 ft | 206 kts | 35° |
| 2026-04-26 19:52 | 40.73372 | -91.53417 | 7105 ft | 206 kts | 35° |
| 2026-04-26 19:53 | 40.74599 | -91.52440 | 7104 ft | 205 kts | 35° |
| 2026-04-26 19:53 | 40.75815 | -91.51472 | 7108 ft | 205 kts | 35° |
| 2026-04-26 19:53 | 40.77045 | -91.50492 | 7105 ft | 205 kts | 36° |
| 2026-04-26 19:53 | 40.78265 | -91.49520 | 7105 ft | 205 kts | 35° |
| 2026-04-26 19:54 | 40.79488 | -91.48544 | 7116 ft | 206 kts | 35° |
| 2026-04-26 19:54 | 40.80716 | -91.47566 | 7115 ft | 206 kts | 35° |
| 2026-04-26 19:54 | 40.81942 | -91.46587 | 7110 ft | 205 kts | 35° |
| 2026-04-26 19:54 | 40.83172 | -91.45605 | 7058 ft | 209 kts | 35° |
| 2026-04-26 19:55 | 40.84425 | -91.44604 | 7001 ft | 210 kts | 35° |
| 2026-04-26 19:55 | 40.85479 | -91.43360 | 6999 ft | 201 kts | 58° |
| 2026-04-26 19:55 | 40.86279 | -91.41844 | 6999 ft | 200 kts | 61° |
| 2026-04-26 19:55 | 40.87068 | -91.40342 | 7000 ft | 200 kts | 58° |
| 2026-04-26 19:56 | 40.87922 | -91.38896 | 7000 ft | 200 kts | 56° |
| 2026-04-26 19:56 | 40.88804 | -91.37465 | 7005 ft | 200 kts | 56° |
| 2026-04-26 19:56 | 40.89681 | -91.36040 | 7002 ft | 200 kts | 56° |
| 2026-04-26 19:56 | 40.90552 | -91.34593 | 7000 ft | 201 kts | 56° |
| 2026-04-26 19:57 | 40.91430 | -91.33157 | 6999 ft | 201 kts | 56° |
| 2026-04-26 19:57 | 40.92303 | -91.31715 | 6998 ft | 201 kts | 56° |
| 2026-04-26 19:57 | 40.93179 | -91.30276 | 6998 ft | 201 kts | 57° |
| 2026-04-26 19:57 | 40.94054 | -91.28835 | 6998 ft | 201 kts | 56° |
| 2026-04-26 19:58 | 40.94924 | -91.27393 | 7004 ft | 201 kts | 57° |
| 2026-04-26 19:58 | 40.95800 | -91.25949 | 6999 ft | 202 kts | 56° |
| 2026-04-26 19:58 | 40.96682 | -91.24506 | 6999 ft | 201 kts | 57° |
| 2026-04-26 19:58 | 40.97555 | -91.23065 | 7004 ft | 201 kts | 56° |
| 2026-04-26 19:59 | 40.98425 | -91.21626 | 7008 ft | 202 kts | 57° |
| 2026-04-26 19:59 | 40.99306 | -91.20171 | 7011 ft | 202 kts | 56° |
| 2026-04-26 19:59 | 41.00181 | -91.18720 | 7010 ft | 202 kts | 57° |
| 2026-04-26 19:59 | 41.01048 | -91.17286 | 7009 ft | 201 kts | 57° |
| 2026-04-26 20:00 | 41.01934 | -91.15818 | 7007 ft | 203 kts | 56° |
| 2026-04-26 20:00 | 41.02818 | -91.14361 | 6994 ft | 202 kts | 56° |
| 2026-04-26 20:00 | 41.03681 | -91.12937 | 6999 ft | 201 kts | 56° |
| 2026-04-26 20:00 | 41.04561 | -91.11470 | 6999 ft | 201 kts | 57° |
| 2026-04-26 20:01 | 41.05433 | -91.10026 | 7001 ft | 201 kts | 55° |
| 2026-04-26 20:01 | 41.06300 | -91.08592 | 6999 ft | 202 kts | 56° |
| 2026-04-26 20:01 | 41.07186 | -91.07119 | 6998 ft | 201 kts | 56° |
| 2026-04-26 20:01 | 41.08050 | -91.05685 | 7012 ft | 202 kts | 56° |
| 2026-04-26 20:02 | 41.08927 | -91.04233 | 7015 ft | 202 kts | 56° |
| 2026-04-26 20:02 | 41.09804 | -91.02775 | 7011 ft | 202 kts | 56° |
| 2026-04-26 20:02 | 41.10678 | -91.01319 | 7007 ft | 202 kts | 56° |
| 2026-04-26 20:02 | 41.11269 | -91.00338 | 7009 ft | 202 kts | 56° |
| 2026-04-26 20:03 | 41.12438 | -90.98395 | 7010 ft | 201 kts | 56° |
| 2026-04-26 20:03 | 41.13302 | -90.96956 | 7010 ft | 202 kts | 56° |
| 2026-04-26 20:03 | 41.14184 | -90.95487 | 7018 ft | 205 kts | 56° |
| 2026-04-26 20:03 | 41.15073 | -90.94006 | 7012 ft | 204 kts | 56° |
| 2026-04-26 20:04 | 41.15955 | -90.92536 | 7012 ft | 204 kts | 56° |
| 2026-04-26 20:04 | 41.16840 | -90.91061 | 7011 ft | 204 kts | 56° |
| 2026-04-26 20:04 | 41.17720 | -90.89592 | 7014 ft | 204 kts | 56° |
| 2026-04-26 20:04 | 41.18601 | -90.88121 | 7012 ft | 204 kts | 56° |
| 2026-04-26 20:05 | 41.19482 | -90.86650 | 7017 ft | 204 kts | 56° |
| 2026-04-26 20:05 | 41.20362 | -90.85183 | 7013 ft | 204 kts | 56° |
| 2026-04-26 20:05 | 41.21247 | -90.83707 | 7016 ft | 203 kts | 57° |
| 2026-04-26 20:05 | 41.22122 | -90.82235 | 7017 ft | 203 kts | 56° |
| 2026-04-26 20:06 | 41.22997 | -90.80770 | 7016 ft | 203 kts | 56° |
| 2026-04-26 20:06 | 41.23869 | -90.79313 | 7016 ft | 202 kts | 56° |
| 2026-04-26 20:06 | 41.24744 | -90.77842 | 7009 ft | 202 kts | 56° |
| 2026-04-26 20:06 | 41.25617 | -90.76384 | 7010 ft | 202 kts | 56° |
| 2026-04-26 20:07 | 41.26496 | -90.74917 | 7013 ft | 204 kts | 56° |
| 2026-04-26 20:07 | 41.27374 | -90.73439 | 7013 ft | 204 kts | 56° |
| 2026-04-26 20:07 | 41.28248 | -90.71960 | 7009 ft | 203 kts | 56° |
| 2026-04-26 20:07 | 41.29128 | -90.70497 | 7010 ft | 203 kts | 56° |
| 2026-04-26 20:08 | 41.30003 | -90.69028 | 7009 ft | 203 kts | 56° |
| 2026-04-26 20:08 | 41.30878 | -90.67554 | 7010 ft | 202 kts | 56° |
| 2026-04-26 20:08 | 41.31752 | -90.66083 | 7010 ft | 203 kts | 56° |
| 2026-04-26 20:08 | 41.32627 | -90.64614 | 7009 ft | 202 kts | 56° |
| 2026-04-26 20:09 | 41.33499 | -90.63148 | 7010 ft | 202 kts | 56° |
| 2026-04-26 20:09 | 41.34369 | -90.61680 | 7011 ft | 202 kts | 56° |
| 2026-04-26 20:09 | 41.35242 | -90.60209 | 7013 ft | 203 kts | 56° |
| 2026-04-26 20:09 | 41.36119 | -90.58730 | 7011 ft | 204 kts | 56° |
| 2026-04-26 20:10 | 41.36994 | -90.57257 | 7010 ft | 203 kts | 56° |
| 2026-04-26 20:10 | 41.37874 | -90.55772 | 7011 ft | 203 kts | 56° |
| 2026-04-26 20:10 | 41.38748 | -90.54297 | 7012 ft | 203 kts | 56° |
| 2026-04-26 20:10 | 41.39624 | -90.52818 | 7012 ft | 204 kts | 56° |
| 2026-04-26 20:11 | 41.40502 | -90.51334 | 7012 ft | 204 kts | 56° |
| 2026-04-26 20:11 | 41.41082 | -90.50354 | 7014 ft | 204 kts | 56° |
| 2026-04-26 20:11 | 41.41963 | -90.48864 | 7011 ft | 204 kts | 56° |
| 2026-04-26 20:12 | 41.43718 | -90.45895 | 7012 ft | 204 kts | 56° |
| 2026-04-26 20:12 | 41.44597 | -90.44409 | 7012 ft | 204 kts | 56° |
| 2026-04-26 20:12 | 41.45472 | -90.42923 | 7014 ft | 204 kts | 56° |
| 2026-04-26 20:12 | 41.46346 | -90.41441 | 7011 ft | 203 kts | 56° |
| 2026-04-26 20:13 | 41.47223 | -90.39956 | 7014 ft | 204 kts | 56° |
| 2026-04-26 20:13 | 41.48098 | -90.38470 | 7024 ft | 204 kts | 56° |
| 2026-04-26 20:13 | 41.48975 | -90.36971 | 7026 ft | 204 kts | 56° |
| 2026-04-26 20:13 | 41.49858 | -90.35485 | 7023 ft | 204 kts | 56° |
| 2026-04-26 20:14 | 41.50737 | -90.33995 | 7022 ft | 204 kts | 56° |
| 2026-04-26 20:14 | 41.51611 | -90.32504 | 7035 ft | 205 kts | 56° |
| 2026-04-26 20:14 | 41.52490 | -90.31002 | 7032 ft | 205 kts | 56° |
| 2026-04-26 20:14 | 41.53375 | -90.29501 | 7035 ft | 205 kts | 56° |
| 2026-04-26 20:15 | 41.54257 | -90.28002 | 7039 ft | 205 kts | 56° |
| 2026-04-26 20:15 | 41.55140 | -90.26490 | 7040 ft | 207 kts | 56° |
| 2026-04-26 20:15 | 41.56025 | -90.24985 | 7039 ft | 206 kts | 56° |
| 2026-04-26 20:15 | 41.56908 | -90.23485 | 7042 ft | 205 kts | 56° |
| 2026-04-26 20:16 | 41.57785 | -90.21987 | 7055 ft | 205 kts | 57° |
| 2026-04-26 20:16 | 41.58662 | -90.20484 | 7052 ft | 205 kts | 56° |
| 2026-04-26 20:16 | 41.59541 | -90.18992 | 7051 ft | 204 kts | 56° |
| 2026-04-26 20:16 | 41.60417 | -90.17494 | 7053 ft | 205 kts | 56° |
| 2026-04-26 20:17 | 41.61293 | -90.15997 | 7052 ft | 204 kts | 56° |
| 2026-04-26 20:17 | 41.62167 | -90.14502 | 7054 ft | 204 kts | 56° |
| 2026-04-26 20:17 | 41.63037 | -90.13004 | 7054 ft | 205 kts | 56° |
| 2026-04-26 20:17 | 41.63616 | -90.12009 | 7055 ft | 205 kts | 56° |
| 2026-04-26 20:18 | 41.64792 | -90.10008 | 7054 ft | 204 kts | 56° |
| 2026-04-26 20:18 | 41.65668 | -90.08513 | 7058 ft | 204 kts | 56° |
| 2026-04-26 20:18 | 41.66543 | -90.07009 | 7061 ft | 206 kts | 56° |
| 2026-04-26 20:18 | 41.67417 | -90.05488 | 7057 ft | 206 kts | 56° |
| 2026-04-26 20:19 | 41.68302 | -90.03987 | 7059 ft | 206 kts | 56° |
| 2026-04-26 20:19 | 41.69185 | -90.02482 | 7062 ft | 205 kts | 56° |
| 2026-04-26 20:19 | 41.70059 | -90.00970 | 7068 ft | 206 kts | 56° |
| 2026-04-26 20:19 | 41.70945 | -89.99451 | 7072 ft | 207 kts | 56° |
| 2026-04-26 20:20 | 41.71823 | -89.97935 | 7064 ft | 206 kts | 56° |
| 2026-04-26 20:20 | 41.72707 | -89.96423 | 7062 ft | 207 kts | 56° |
| 2026-04-26 20:20 | 41.73591 | -89.94922 | 7061 ft | 205 kts | 57° |
| 2026-04-26 20:20 | 41.74452 | -89.93406 | 7060 ft | 204 kts | 57° |
| 2026-04-26 20:21 | 41.75322 | -89.91903 | 7060 ft | 204 kts | 56° |
| 2026-04-26 20:21 | 41.76194 | -89.90410 | 7062 ft | 203 kts | 56° |
| 2026-04-26 20:21 | 41.77071 | -89.88923 | 7061 ft | 203 kts | 56° |
| 2026-04-26 20:21 | 41.77924 | -89.87420 | 7062 ft | 203 kts | 56° |
| 2026-04-26 20:22 | 41.78787 | -89.85927 | 7064 ft | 203 kts | 56° |
| 2026-04-26 20:22 | 41.79654 | -89.84438 | 7063 ft | 203 kts | 56° |
| 2026-04-26 20:22 | 41.80524 | -89.82939 | 7065 ft | 203 kts | 56° |
| 2026-04-26 20:22 | 41.81376 | -89.81463 | 7064 ft | 203 kts | 57° |
| 2026-04-26 20:23 | 41.82253 | -89.79944 | 7064 ft | 203 kts | 56° |
| 2026-04-26 20:23 | 41.83121 | -89.78448 | 7064 ft | 204 kts | 56° |
| 2026-04-26 20:23 | 41.83986 | -89.76940 | 7064 ft | 204 kts | 56° |
| 2026-04-26 20:23 | 41.84853 | -89.75446 | 7064 ft | 203 kts | 56° |
| 2026-04-26 20:24 | 41.85725 | -89.73941 | 7066 ft | 205 kts | 57° |
| 2026-04-26 20:24 | 41.86593 | -89.72431 | 7066 ft | 204 kts | 56° |
| 2026-04-26 20:24 | 41.87457 | -89.70942 | 7067 ft | 205 kts | 56° |
| 2026-04-26 20:24 | 41.88335 | -89.69410 | 7069 ft | 204 kts | 57° |
| 2026-04-26 20:25 | 41.89206 | -89.67885 | 7068 ft | 207 kts | 56° |
| 2026-04-26 20:25 | 41.89783 | -89.66878 | 7068 ft | 206 kts | 56° |
| 2026-04-26 20:25 | 41.90952 | -89.64861 | 7068 ft | 205 kts | 56° |
| 2026-04-26 20:25 | 41.91813 | -89.63367 | 7067 ft | 204 kts | 56° |
| 2026-04-26 20:26 | 41.92675 | -89.61863 | 7068 ft | 203 kts | 57° |
| 2026-04-26 20:26 | 41.93539 | -89.60359 | 7069 ft | 203 kts | 56° |
| 2026-04-26 20:26 | 41.94400 | -89.58859 | 7069 ft | 203 kts | 57° |
| 2026-04-26 20:26 | 41.95262 | -89.57356 | 7069 ft | 203 kts | 57° |
| 2026-04-26 20:27 | 41.96124 | -89.55855 | 7069 ft | 203 kts | 56° |
| 2026-04-26 20:27 | 41.96989 | -89.54347 | 7068 ft | 203 kts | 56° |
| 2026-04-26 20:27 | 41.97851 | -89.52838 | 7074 ft | 204 kts | 56° |
| 2026-04-26 20:27 | 41.98717 | -89.51325 | 7025 ft | 207 kts | 56° |
| 2026-04-26 20:28 | 41.99611 | -89.49760 | 6858 ft | 213 kts | 57° |
| 2026-04-26 20:28 | 42.00511 | -89.48181 | 6666 ft | 213 kts | 56° |
| 2026-04-26 20:28 | 42.01415 | -89.46608 | 6483 ft | 212 kts | 56° |
| 2026-04-26 20:28 | 42.02313 | -89.45041 | 6284 ft | 212 kts | 57° |
| 2026-04-26 20:29 | 42.03206 | -89.43476 | 6081 ft | 210 kts | 56° |
| 2026-04-26 20:29 | 42.04089 | -89.41931 | 5990 ft | 204 kts | 56° |
| 2026-04-26 20:29 | 42.04940 | -89.40441 | 5984 ft | 198 kts | 56° |
| 2026-04-26 20:29 | 42.05771 | -89.38983 | 5979 ft | 195 kts | 57° |
| 2026-04-26 20:30 | 42.06590 | -89.37546 | 5985 ft | 192 kts | 57° |
| 2026-04-26 20:30 | 42.07397 | -89.36131 | 5994 ft | 191 kts | 57° |
| 2026-04-26 20:30 | 42.08202 | -89.34704 | 5985 ft | 191 kts | 57° |
| 2026-04-26 20:30 | 42.09014 | -89.33295 | 5985 ft | 190 kts | 56° |
| 2026-04-26 20:31 | 42.09817 | -89.31883 | 5988 ft | 190 kts | 57° |
| 2026-04-26 20:31 | 42.10622 | -89.30464 | 5987 ft | 191 kts | 57° |
| 2026-04-26 20:31 | 42.11426 | -89.29051 | 5987 ft | 190 kts | 57° |
| 2026-04-26 20:31 | 42.12228 | -89.27635 | 5987 ft | 190 kts | 56° |
| 2026-04-26 20:32 | 42.13036 | -89.26217 | 5991 ft | 192 kts | 57° |
| 2026-04-26 20:32 | 42.13851 | -89.24776 | 5981 ft | 194 kts | 57° |
| 2026-04-26 20:32 | 42.14665 | -89.23338 | 5990 ft | 192 kts | 56° |
| 2026-04-26 20:32 | 42.15483 | -89.21916 | 5993 ft | 193 kts | 58° |
| 2026-04-26 20:33 | 42.16121 | -89.20347 | 6001 ft | 191 kts | 75° |
| 2026-04-26 20:33 | 42.16611 | -89.18674 | 6003 ft | 193 kts | 72° |
| 2026-04-26 20:33 | 42.17133 | -89.16993 | 6009 ft | 195 kts | 71° |
| 2026-04-26 20:33 | 42.17658 | -89.15306 | 6010 ft | 195 kts | 72° |
| 2026-04-26 20:34 | 42.18175 | -89.13623 | 6008 ft | 195 kts | 72° |
| 2026-04-26 20:34 | 42.18691 | -89.11937 | 6009 ft | 195 kts | 73° |
| 2026-04-26 20:34 | 42.19209 | -89.10242 | 6001 ft | 196 kts | 72° |
| 2026-04-26 20:34 | 42.19729 | -89.08549 | 6007 ft | 196 kts | 72° |
| 2026-04-26 20:35 | 42.20248 | -89.06858 | 6014 ft | 196 kts | 72° |
| 2026-04-26 20:35 | 42.20767 | -89.05153 | 6024 ft | 196 kts | 73° |
| 2026-04-26 20:35 | 42.21294 | -89.03445 | 6016 ft | 196 kts | 72° |
| 2026-04-26 20:35 | 42.21811 | -89.01746 | 6010 ft | 196 kts | 73° |
| 2026-04-26 20:36 | 42.22331 | -89.00053 | 6024 ft | 196 kts | 73° |
| 2026-04-26 20:36 | 42.22850 | -88.98347 | 6011 ft | 195 kts | 72° |
| 2026-04-26 20:36 | 42.23365 | -88.96656 | 6005 ft | 195 kts | 72° |
| 2026-04-26 20:36 | 42.23879 | -88.94970 | 6011 ft | 194 kts | 73° |
| 2026-04-26 20:37 | 42.24395 | -88.93282 | 6011 ft | 195 kts | 72° |
| 2026-04-26 20:37 | 42.24913 | -88.91586 | 6020 ft | 196 kts | 72° |
| 2026-04-26 20:37 | 42.25432 | -88.89888 | 6022 ft | 195 kts | 73° |
| 2026-04-26 20:37 | 42.25948 | -88.88189 | 6027 ft | 195 kts | 73° |
| 2026-04-26 20:38 | 42.26457 | -88.86494 | 6022 ft | 195 kts | 72° |
| 2026-04-26 20:38 | 42.26971 | -88.84804 | 6016 ft | 195 kts | 74° |
| 2026-04-26 20:38 | 42.27489 | -88.83103 | 6021 ft | 197 kts | 72° |
| 2026-04-26 20:38 | 42.28013 | -88.81388 | 6022 ft | 198 kts | 73° |
| 2026-04-26 20:39 | 42.28531 | -88.79673 | 6021 ft | 196 kts | 73° |
| 2026-04-26 20:39 | 42.28870 | -88.78542 | 6026 ft | 195 kts | 74° |
| 2026-04-26 20:39 | 42.29548 | -88.76307 | 6030 ft | 195 kts | 72° |
| 2026-04-26 20:39 | 42.30072 | -88.74587 | 6028 ft | 194 kts | 72° |
| 2026-04-26 20:40 | 42.30581 | -88.72898 | 6024 ft | 195 kts | 72° |
| 2026-04-26 20:40 | 42.31088 | -88.71212 | 6035 ft | 194 kts | 73° |
| 2026-04-26 20:40 | 42.31604 | -88.69514 | 6022 ft | 195 kts | 72° |
| 2026-04-26 20:40 | 42.32114 | -88.67823 | 6035 ft | 195 kts | 72° |
| 2026-04-26 20:41 | 42.32629 | -88.66113 | 6032 ft | 196 kts | 72° |
| 2026-04-26 20:41 | 42.33143 | -88.64407 | 6031 ft | 195 kts | 72° |
| 2026-04-26 20:41 | 42.33651 | -88.62721 | 6030 ft | 194 kts | 73° |
| 2026-04-26 20:41 | 42.34160 | -88.61029 | 6034 ft | 194 kts | 74° |
| 2026-04-26 20:42 | 42.34668 | -88.59346 | 6038 ft | 193 kts | 74° |
| 2026-04-26 20:42 | 42.35178 | -88.57654 | 6037 ft | 194 kts | 73° |
| 2026-04-26 20:42 | 42.35681 | -88.55970 | 6044 ft | 194 kts | 73° |
| 2026-04-26 20:42 | 42.36189 | -88.54273 | 6043 ft | 194 kts | 75° |
| 2026-04-26 20:43 | 42.36698 | -88.52586 | 6043 ft | 195 kts | 74° |
| 2026-04-26 20:43 | 42.37097 | -88.50863 | 6039 ft | 189 kts | 89° |
| 2026-04-26 20:43 | 42.36997 | -88.49124 | 6040 ft | 184 kts | 109° |
| 2026-04-26 20:43 | 42.36471 | -88.47582 | 6007 ft | 181 kts | 126° |
| 2026-04-26 20:44 | 42.35828 | -88.46119 | 5810 ft | 185 kts | 123° |
| 2026-04-26 20:44 | 42.35183 | -88.44611 | 5617 ft | 185 kts | 124° |
| 2026-04-26 20:44 | 42.34539 | -88.43118 | 5422 ft | 182 kts | 124° |
| 2026-04-26 20:44 | 42.33904 | -88.41652 | 5223 ft | 180 kts | 124° |
| 2026-04-26 20:45 | 42.33275 | -88.40197 | 5028 ft | 180 kts | 124° |
| 2026-04-26 20:45 | 42.32719 | -88.38690 | 4820 ft | 181 kts | 108° |
| 2026-04-26 20:45 | 42.32701 | -88.36975 | 4616 ft | 185 kts | 90° |
| 2026-04-26 20:45 | 42.32805 | -88.35252 | 4416 ft | 181 kts | 91° |
| 2026-04-26 20:46 | 42.32897 | -88.33575 | 4218 ft | 178 kts | 91° |
| 2026-04-26 20:46 | 42.32993 | -88.31926 | 4057 ft | 173 kts | 89° |
| 2026-04-26 20:46 | 42.33090 | -88.30349 | 4048 ft | 165 kts | 91° |
| 2026-04-26 20:46 | 42.33116 | -88.28853 | 4045 ft | 155 kts | 103° |
| 2026-04-26 20:47 | 42.32917 | -88.27447 | 4043 ft | 151 kts | 106° |
| 2026-04-26 20:47 | 42.32844 | -88.26983 | 4046 ft | 150 kts | 107° |
| 2026-04-26 20:47 | 42.32480 | -88.24685 | 4045 ft | 151 kts | 106° |
| 2026-04-26 20:47 | 42.32274 | -88.23303 | 4046 ft | 150 kts | 107° |
| 2026-04-26 20:48 | 42.32064 | -88.21925 | 4045 ft | 148 kts | 106° |
| 2026-04-26 20:48 | 42.31869 | -88.20563 | 4045 ft | 147 kts | 106° |
| 2026-04-26 20:48 | 42.31663 | -88.19207 | 4046 ft | 147 kts | 107° |
| 2026-04-26 20:48 | 42.31463 | -88.17864 | 4046 ft | 145 kts | 104° |
| 2026-04-26 20:49 | 42.31261 | -88.16517 | 4052 ft | 147 kts | 106° |
| 2026-04-26 20:49 | 42.31050 | -88.15160 | 4058 ft | 150 kts | 107° |
| 2026-04-26 20:49 | 42.30844 | -88.13754 | 4064 ft | 155 kts | 106° |
| 2026-04-26 20:49 | 42.30627 | -88.12322 | 4067 ft | 156 kts | 107° |
| 2026-04-26 20:50 | 42.30422 | -88.10868 | 4064 ft | 158 kts | 104° |
| 2026-04-26 20:50 | 42.30199 | -88.09406 | 4063 ft | 159 kts | 107° |
| 2026-04-26 20:50 | 42.29967 | -88.07948 | 4049 ft | 159 kts | 105° |
| 2026-04-26 20:50 | 42.29721 | -88.06487 | 4049 ft | 160 kts | 106° |
| 2026-04-26 20:51 | 42.29477 | -88.05014 | 4055 ft | 161 kts | 106° |
| 2026-04-26 20:51 | 42.29245 | -88.03543 | 4057 ft | 160 kts | 106° |
| 2026-04-26 20:51 | 42.28798 | -88.02223 | 4053 ft | 154 kts | 139° |
| 2026-04-26 20:51 | 42.27875 | -88.01504 | 4058 ft | 154 kts | 154° |
| 2026-04-26 20:52 | 42.26905 | -88.00876 | 4056 ft | 155 kts | 154° |
| 2026-04-26 20:52 | 42.25926 | -88.00244 | 4051 ft | 158 kts | 154° |
| 2026-04-26 20:52 | 42.24933 | -87.99605 | 3909 ft | 166 kts | 155° |
| 2026-04-26 20:52 | 42.23831 | -87.98887 | 3449 ft | 185 kts | 154° |
| 2026-04-26 20:53 | 42.22677 | -87.98175 | 3200 ft | 180 kts | 154° |
| 2026-04-26 20:53 | 42.21570 | -87.97423 | 2922 ft | 176 kts | 148° |
| 2026-04-26 20:53 | 42.20579 | -87.96466 | 2604 ft | 175 kts | 140° |
| 2026-04-26 20:53 | 42.19749 | -87.95319 | 2495 ft | 167 kts | 130° |
| 2026-04-26 20:54 | 42.19265 | -87.94529 | 2455 ft | 163 kts | 132° |
| 2026-04-26 20:54 | 42.18471 | -87.93443 | 2308 ft | 162 kts | 135° |
| 2026-04-26 20:54 | 42.17709 | -87.92395 | 2209 ft | 152 kts | 131° |
| 2026-04-26 20:54 | 42.16799 | -87.91040 | 2137 ft | 141 kts | 132° |
| 2026-04-26 20:55 | 42.16353 | -87.90401 | 2110 ft | 138 kts | 126° |
| 2026-04-26 20:55 | 42.15806 | -87.89334 | 1992 ft | 139 kts | 122° |
| 2026-04-26 20:55 | 42.15288 | -87.88252 | 1960 ft | 136 kts | 123° |
| 2026-04-26 20:55 | 42.14605 | -87.86869 | 1990 ft | 136 kts | 123° |
| 2026-04-26 20:56 | 42.14237 | -87.86176 | 2045 ft | 134 kts | 126° |
| 2026-04-26 20:56 | 42.13660 | -87.85173 | 2060 ft | 135 kts | 136° |
| 2026-04-26 20:56 | 42.12808 | -87.84723 | 1943 ft | 139 kts | 168° |
| 2026-04-26 20:56 | 42.11822 | -87.84726 | 1811 ft | 143 kts | 178° |
| 2026-04-26 20:57 | 42.10825 | -87.84822 | 1807 ft | 140 kts | 180° |
| 2026-04-26 20:57 | 42.10034 | -87.85430 | 1821 ft | 138 kts | 234° |
| 2026-04-26 20:57 | 42.10048 | -87.86700 | 1404 ft | 143 kts | 282° |
| 2026-04-26 20:57 | 42.10377 | -87.87829 | 1009 ft | 122 kts | 295° |
| 2026-04-26 20:58 | 42.10793 | -87.88808 | 784 ft | 119 kts | 291° |
| 2026-04-26 20:58 | 42.11143 | -87.89727 | 643 ft | 97 kts | 297° |
| 2026-04-26 20:58 | 42.11409 | -87.90386 | 645 ft | 60 kts | 298° |
| 2026-04-26 20:58 | 42.11532 | -87.90599 | 643 ft | 7 kts | 30° |
| 2026-04-26 20:59 | 42.11593 | -87.90561 | 643 ft | 14 kts | 28° |
| 2026-04-26 20:59 | 42.11729 | -87.90555 | 642 ft | 27 kts | 341° |
| 2026-04-26 20:59 | 42.11903 | -87.90671 | 642 ft | 22 kts | 290° |
| 2026-04-26 20:59 | 42.12005 | -87.90801 | 644 ft | 10 kts | 8° |
| 2026-04-26 21:00 | 42.12016 | -87.90796 | 644 ft | 0 kts | 23° |